sensor_id;sensor_type;location;lat;lon;timestamp;temperature;humidity
53422;DHT22;39319;52.944;5.928;2023-05-08T00:01:16;16.00;96.50
53422;DHT22;39319;52.944;5.928;2023-05-08T00:03:42;16.10;96.60
53422;DHT22;39319;52.944;5.928;2023-05-08T00:06:08;16.10;96.60
53422;DHT22;39319;52.944;5.928;2023-05-08T00:08:34;16.00;96.50
53422;DHT22;39319;52.944;5.928;2023-05-08T00:10:59;16.00;96.60
53422;DHT22;39319;52.944;5.928;2023-05-08T00:13:25;15.90;96.60
53422;DHT22;39319;52.944;5.928;2023-05-08T00:15:51;15.80;96.60
53422;DHT22;39319;52.944;5.928;2023-05-08T00:18:16;15.80;96.70
53422;DHT22;39319;52.944;5.928;2023-05-08T00:20:42;15.80;96.70
53422;DHT22;39319;52.944;5.928;2023-05-08T00:23:08;15.70;96.70
53422;DHT22;39319;52.944;5.928;2023-05-08T00:25:33;15.90;96.80
53422;DHT22;39319;52.944;5.928;2023-05-08T00:27:59;15.80;96.90
53422;DHT22;39319;52.944;5.928;2023-05-08T00:30:25;15.60;96.90
53422;DHT22;39319;52.944;5.928;2023-05-08T00:32:51;15.70;97.00
53422;DHT22;39319;52.944;5.928;2023-05-08T00:35:17;15.60;96.90
53422;DHT22;39319;52.944;5.928;2023-05-08T00:37:43;15.70;96.90
53422;DHT22;39319;52.944;5.928;2023-05-08T00:40:09;15.60;96.80
53422;DHT22;39319;52.944;5.928;2023-05-08T00:42:36;15.60;96.90
53422;DHT22;39319;52.944;5.928;2023-05-08T00:45:02;15.60;97.00
53422;DHT22;39319;52.944;5.928;2023-05-08T00:47:29;15.50;97.10
53422;DHT22;39319;52.944;5.928;2023-05-08T00:49:55;15.50;97.20
53422;DHT22;39319;52.944;5.928;2023-05-08T00:52:21;15.50;97.10
53422;DHT22;39319;52.944;5.928;2023-05-08T00:54:47;15.50;97.20
53422;DHT22;39319;52.944;5.928;2023-05-08T00:57:14;15.40;97.20
53422;DHT22;39319;52.944;5.928;2023-05-08T00:59:41;15.50;97.20
53422;DHT22;39319;52.944;5.928;2023-05-08T01:02:08;15.40;97.30
53422;DHT22;39319;52.944;5.928;2023-05-08T01:04:34;15.40;97.20
53422;DHT22;39319;52.944;5.928;2023-05-08T01:07:02;15.50;97.20
53422;DHT22;39319;52.944;5.928;2023-05-08T01:09:27;15.50;97.20
53422;DHT22;39319;52.944;5.928;2023-05-08T01:15:11;15.40;96.70
53422;DHT22;39319;52.944;5.928;2023-05-08T01:31:31;15.00;96.70
53422;DHT22;39319;52.944;5.928;2023-05-08T01:34:08;15.00;96.80
53422;DHT22;39319;52.944;5.928;2023-05-08T01:37:14;15.00;97.40
53422;DHT22;39319;52.944;5.928;2023-05-08T01:40:10;15.00;97.40
53422;DHT22;39319;52.944;5.928;2023-05-08T01:45:33;14.90;96.90
53422;DHT22;39319;52.944;5.928;2023-05-08T01:48:21;14.80;97.50
53422;DHT22;39319;52.944;5.928;2023-05-08T01:50:55;14.80;97.50
53422;DHT22;39319;52.944;5.928;2023-05-08T01:53:46;14.80;97.50
53422;DHT22;39319;52.944;5.928;2023-05-08T01:56:15;14.60;97.50
53422;DHT22;39319;52.944;5.928;2023-05-08T01:58:45;14.80;97.50
53422;DHT22;39319;52.944;5.928;2023-05-08T02:01:12;14.70;97.50
53422;DHT22;39319;52.944;5.928;2023-05-08T02:03:40;14.90;97.70
53422;DHT22;39319;52.944;5.928;2023-05-08T02:06:08;14.70;98.00
53422;DHT22;39319;52.944;5.928;2023-05-08T02:08:35;14.70;97.70
53422;DHT22;39319;52.944;5.928;2023-05-08T02:11:03;14.70;97.80
53422;DHT22;39319;52.944;5.928;2023-05-08T02:13:31;14.70;97.90
53422;DHT22;39319;52.944;5.928;2023-05-08T02:15:59;14.60;98.10
53422;DHT22;39319;52.944;5.928;2023-05-08T02:18:26;14.70;98.30
53422;DHT22;39319;52.944;5.928;2023-05-08T02:20:53;14.70;98.40
53422;DHT22;39319;52.944;5.928;2023-05-08T02:23:22;14.70;98.60
53422;DHT22;39319;52.944;5.928;2023-05-08T02:25:49;14.80;98.70
53422;DHT22;39319;52.944;5.928;2023-05-08T02:28:17;14.90;98.70
53422;DHT22;39319;52.944;5.928;2023-05-08T02:30:43;14.80;98.70
53422;DHT22;39319;52.944;5.928;2023-05-08T02:33:11;14.80;98.90
53422;DHT22;39319;52.944;5.928;2023-05-08T02:35:39;15.00;99.00
53422;DHT22;39319;52.944;5.928;2023-05-08T02:38:08;14.90;98.90
53422;DHT22;39319;52.944;5.928;2023-05-08T02:40:37;15.10;98.90
53422;DHT22;39319;52.944;5.928;2023-05-08T02:43:04;14.90;98.90
53422;DHT22;39319;52.944;5.928;2023-05-08T02:45:40;14.90;98.80
53422;DHT22;39319;52.944;5.928;2023-05-08T02:48:37;14.90;98.20
53422;DHT22;39319;52.944;5.928;2023-05-08T02:54:03;14.90;98.70
53422;DHT22;39319;52.944;5.928;2023-05-08T02:56:49;15.00;98.10
53422;DHT22;39319;52.944;5.928;2023-05-08T02:59:23;14.90;98.50
53422;DHT22;39319;52.944;5.928;2023-05-08T03:02:20;15.00;98.50
53422;DHT22;39319;52.944;5.928;2023-05-08T03:04:53;14.90;97.70
53422;DHT22;39319;52.944;5.928;2023-05-08T03:07:23;15.00;98.50
53422;DHT22;39319;52.944;5.928;2023-05-08T03:09:56;14.90;98.20
53422;DHT22;39319;52.944;5.928;2023-05-08T03:12:26;14.90;98.50
53422;DHT22;39319;52.944;5.928;2023-05-08T03:15:05;15.00;98.30
53422;DHT22;39319;52.944;5.928;2023-05-08T03:17:33;14.90;97.90
53422;DHT22;39319;52.944;5.928;2023-05-08T03:20:03;14.80;98.50
53422;DHT22;39319;52.944;5.928;2023-05-08T03:22:32;14.80;98.50
53422;DHT22;39319;52.944;5.928;2023-05-08T03:25:00;15.00;98.40
53422;DHT22;39319;52.944;5.928;2023-05-08T03:27:30;14.80;98.30
53422;DHT22;39319;52.944;5.928;2023-05-08T03:29:58;15.00;98.10
53422;DHT22;39319;52.944;5.928;2023-05-08T03:32:26;14.80;97.90
53422;DHT22;39319;52.944;5.928;2023-05-08T03:34:53;14.90;97.80
53422;DHT22;39319;52.944;5.928;2023-05-08T03:37:20;14.80;97.80
53422;DHT22;39319;52.944;5.928;2023-05-08T03:39:46;14.70;97.70
53422;DHT22;39319;52.944;5.928;2023-05-08T03:42:12;14.90;97.80
53422;DHT22;39319;52.944;5.928;2023-05-08T03:44:49;14.80;97.80
53422;DHT22;39319;52.944;5.928;2023-05-08T03:47:17;14.80;97.90
53422;DHT22;39319;52.944;5.928;2023-05-08T03:49:44;14.50;97.90
53422;DHT22;39319;52.944;5.928;2023-05-08T03:52:14;14.70;97.90
53422;DHT22;39319;52.944;5.928;2023-05-08T03:54:41;14.40;97.40
53422;DHT22;39319;52.944;5.928;2023-05-08T03:57:07;14.40;98.00
53422;DHT22;39319;52.944;5.928;2023-05-08T04:02:37;14.30;97.50
53422;DHT22;39319;52.944;5.928;2023-05-08T04:05:16;14.40;98.10
53422;DHT22;39319;52.944;5.928;2023-05-08T04:08:02;14.30;98.20
53422;DHT22;39319;52.944;5.928;2023-05-08T04:10:36;14.30;98.00
53422;DHT22;39319;52.944;5.928;2023-05-08T04:13:12;14.30;98.10
53422;DHT22;39319;52.944;5.928;2023-05-08T04:15:53;14.40;98.10
53422;DHT22;39319;52.944;5.928;2023-05-08T04:18:27;14.30;97.50
53422;DHT22;39319;52.944;5.928;2023-05-08T04:20:55;14.30;98.20
53422;DHT22;39319;52.944;5.928;2023-05-08T04:23:22;14.30;98.10
53422;DHT22;39319;52.944;5.928;2023-05-08T04:25:50;14.20;98.10
53422;DHT22;39319;52.944;5.928;2023-05-08T04:28:18;14.10;98.20
53422;DHT22;39319;52.944;5.928;2023-05-08T04:30:44;14.20;98.20
53422;DHT22;39319;52.944;5.928;2023-05-08T04:33:11;14.10;98.20
53422;DHT22;39319;52.944;5.928;2023-05-08T04:35:38;14.20;98.30
53422;DHT22;39319;52.944;5.928;2023-05-08T04:38:03;14.10;98.30
53422;DHT22;39319;52.944;5.928;2023-05-08T04:40:29;14.20;98.30
53422;DHT22;39319;52.944;5.928;2023-05-08T04:42:55;14.10;98.10
53422;DHT22;39319;52.944;5.928;2023-05-08T04:45:21;14.10;98.30
53422;DHT22;39319;52.944;5.928;2023-05-08T04:47:46;14.20;98.10
53422;DHT22;39319;52.944;5.928;2023-05-08T04:50:12;14.20;98.40
53422;DHT22;39319;52.944;5.928;2023-05-08T04:52:38;14.00;98.40
53422;DHT22;39319;52.944;5.928;2023-05-08T04:55:04;14.00;98.60
53422;DHT22;39319;52.944;5.928;2023-05-08T04:57:30;14.20;98.30
53422;DHT22;39319;52.944;5.928;2023-05-08T04:59:55;14.10;98.40
53422;DHT22;39319;52.944;5.928;2023-05-08T05:02:21;14.40;98.40
53422;DHT22;39319;52.944;5.928;2023-05-08T05:04:47;14.20;98.40
53422;DHT22;39319;52.944;5.928;2023-05-08T05:07:12;14.20;98.30
53422;DHT22;39319;52.944;5.928;2023-05-08T05:09:38;14.20;98.40
53422;DHT22;39319;52.944;5.928;2023-05-08T05:12:05;14.20;98.10
53422;DHT22;39319;52.944;5.928;2023-05-08T05:14:31;14.20;98.00
53422;DHT22;39319;52.944;5.928;2023-05-08T05:16:57;14.20;98.20
53422;DHT22;39319;52.944;5.928;2023-05-08T05:19:23;14.10;98.40
53422;DHT22;39319;52.944;5.928;2023-05-08T05:21:49;14.20;98.30
53422;DHT22;39319;52.944;5.928;2023-05-08T05:24:15;14.20;98.20
53422;DHT22;39319;52.944;5.928;2023-05-08T05:26:41;14.20;98.30
53422;DHT22;39319;52.944;5.928;2023-05-08T05:29:07;14.30;98.20
53422;DHT22;39319;52.944;5.928;2023-05-08T05:31:32;14.20;98.10
53422;DHT22;39319;52.944;5.928;2023-05-08T05:33:58;14.30;98.40
53422;DHT22;39319;52.944;5.928;2023-05-08T05:36:24;14.40;98.30
53422;DHT22;39319;52.944;5.928;2023-05-08T05:38:49;14.20;98.40
53422;DHT22;39319;52.944;5.928;2023-05-08T05:41:15;13.30;98.20
53422;DHT22;39319;52.944;5.928;2023-05-08T05:43:41;14.60;98.40
53422;DHT22;39319;52.944;5.928;2023-05-08T05:46:08;14.70;98.40
53422;DHT22;39319;52.944;5.928;2023-05-08T05:48:34;14.40;98.20
53422;DHT22;39319;52.944;5.928;2023-05-08T05:50:59;14.60;98.10
53422;DHT22;39319;52.944;5.928;2023-05-08T05:53:25;14.60;98.20
53422;DHT22;39319;52.944;5.928;2023-05-08T05:55:51;14.60;98.30
53422;DHT22;39319;52.944;5.928;2023-05-08T05:58:17;14.60;98.40
53422;DHT22;39319;52.944;5.928;2023-05-08T06:00:43;14.70;98.20
53422;DHT22;39319;52.944;5.928;2023-05-08T06:03:09;14.80;97.70
53422;DHT22;39319;52.944;5.928;2023-05-08T06:05:36;14.80;97.60
53422;DHT22;39319;52.944;5.928;2023-05-08T06:08:02;14.90;97.70
53422;DHT22;39319;52.944;5.928;2023-05-08T06:10:27;14.70;97.70
53422;DHT22;39319;52.944;5.928;2023-05-08T06:12:53;15.10;98.30
53422;DHT22;39319;52.944;5.928;2023-05-08T06:15:21;15.00;98.10
53422;DHT22;39319;52.944;5.928;2023-05-08T06:17:47;15.20;97.60
53422;DHT22;39319;52.944;5.928;2023-05-08T06:20:13;15.20;97.60
53422;DHT22;39319;52.944;5.928;2023-05-08T06:22:39;15.30;97.20
53422;DHT22;39319;52.944;5.928;2023-05-08T06:25:06;15.30;97.40
53422;DHT22;39319;52.944;5.928;2023-05-08T06:27:33;15.30;97.20
53422;DHT22;39319;52.944;5.928;2023-05-08T06:29:59;15.40;97.00
53422;DHT22;39319;52.944;5.928;2023-05-08T06:32:25;15.30;97.00
53422;DHT22;39319;52.944;5.928;2023-05-08T06:34:51;15.40;97.10
53422;DHT22;39319;52.944;5.928;2023-05-08T06:37:16;15.60;97.60
53422;DHT22;39319;52.944;5.928;2023-05-08T06:39:42;15.50;97.10
53422;DHT22;39319;52.944;5.928;2023-05-08T06:42:08;15.50;97.00
53422;DHT22;39319;52.944;5.928;2023-05-08T06:44:34;15.40;96.80
53422;DHT22;39319;52.944;5.928;2023-05-08T06:47:00;15.40;97.00
53422;DHT22;39319;52.944;5.928;2023-05-08T06:49:26;15.50;96.90
53422;DHT22;39319;52.944;5.928;2023-05-08T06:51:51;15.50;96.90
53422;DHT22;39319;52.944;5.928;2023-05-08T06:54:17;15.50;97.50
53422;DHT22;39319;52.944;5.928;2023-05-08T06:56:43;15.70;97.70
53422;DHT22;39319;52.944;5.928;2023-05-08T06:59:09;15.60;97.80
53422;DHT22;39319;52.944;5.928;2023-05-08T07:01:36;15.80;97.40
53422;DHT22;39319;52.944;5.928;2023-05-08T07:04:02;15.60;96.70
53422;DHT22;39319;52.944;5.928;2023-05-08T07:06:29;15.70;96.80
53422;DHT22;39319;52.944;5.928;2023-05-08T07:08:56;15.90;96.60
53422;DHT22;39319;52.944;5.928;2023-05-08T07:11:21;15.70;96.60
53422;DHT22;39319;52.944;5.928;2023-05-08T07:13:47;15.80;96.70
53422;DHT22;39319;52.944;5.928;2023-05-08T07:16:16;16.10;97.50
53422;DHT22;39319;52.944;5.928;2023-05-08T07:18:42;16.10;97.30
53422;DHT22;39319;52.944;5.928;2023-05-08T07:21:09;16.00;96.90
53422;DHT22;39319;52.944;5.928;2023-05-08T07:23:35;16.20;97.20
53422;DHT22;39319;52.944;5.928;2023-05-08T07:26:01;16.30;97.10
53422;DHT22;39319;52.944;5.928;2023-05-08T07:28:27;16.50;97.20
53422;DHT22;39319;52.944;5.928;2023-05-08T07:30:53;16.30;96.90
53422;DHT22;39319;52.944;5.928;2023-05-08T07:33:18;16.40;96.80
53422;DHT22;39319;52.944;5.928;2023-05-08T07:35:44;16.30;96.90
53422;DHT22;39319;52.944;5.928;2023-05-08T07:38:10;16.50;97.00
53422;DHT22;39319;52.944;5.928;2023-05-08T07:40:36;16.40;96.30
53422;DHT22;39319;52.944;5.928;2023-05-08T07:43:01;16.60;96.40
53422;DHT22;39319;52.944;5.928;2023-05-08T07:45:28;16.70;96.60
53422;DHT22;39319;52.944;5.928;2023-05-08T07:47:55;16.70;97.00
53422;DHT22;39319;52.944;5.928;2023-05-08T07:50:22;16.70;97.30
53422;DHT22;39319;52.944;5.928;2023-05-08T07:52:48;17.00;96.90
53422;DHT22;39319;52.944;5.928;2023-05-08T07:55:14;16.90;96.80
53422;DHT22;39319;52.944;5.928;2023-05-08T07:57:41;17.00;96.60
53422;DHT22;39319;52.944;5.928;2023-05-08T08:00:08;17.00;96.20
53422;DHT22;39319;52.944;5.928;2023-05-08T08:02:35;17.20;96.70
53422;DHT22;39319;52.944;5.928;2023-05-08T08:05:03;17.10;96.40
53422;DHT22;39319;52.944;5.928;2023-05-08T08:07:29;17.20;96.70
53422;DHT22;39319;52.944;5.928;2023-05-08T08:09:57;17.40;96.40
53422;DHT22;39319;52.944;5.928;2023-05-08T08:12:23;17.40;96.50
53422;DHT22;39319;52.944;5.928;2023-05-08T08:14:49;17.60;96.10
53422;DHT22;39319;52.944;5.928;2023-05-08T08:17:15;17.60;96.00
53422;DHT22;39319;52.944;5.928;2023-05-08T08:19:43;17.60;96.20
53422;DHT22;39319;52.944;5.928;2023-05-08T08:22:09;17.50;96.40
53422;DHT22;39319;52.944;5.928;2023-05-08T08:24:35;17.50;96.20
53422;DHT22;39319;52.944;5.928;2023-05-08T08:27:01;17.90;96.10
53422;DHT22;39319;52.944;5.928;2023-05-08T08:29:26;17.60;96.10
53422;DHT22;39319;52.944;5.928;2023-05-08T08:31:52;18.00;96.10
53422;DHT22;39319;52.944;5.928;2023-05-08T08:34:18;17.90;95.70
53422;DHT22;39319;52.944;5.928;2023-05-08T08:36:44;18.00;95.90
53422;DHT22;39319;52.944;5.928;2023-05-08T08:39:09;18.00;95.80
53422;DHT22;39319;52.944;5.928;2023-05-08T08:41:35;18.30;95.70
53422;DHT22;39319;52.944;5.928;2023-05-08T08:44:04;18.30;95.70
53422;DHT22;39319;52.944;5.928;2023-05-08T08:46:30;18.10;96.20
53422;DHT22;39319;52.944;5.928;2023-05-08T08:49:02;18.70;96.30
53422;DHT22;39319;52.944;5.928;2023-05-08T08:51:35;18.90;96.30
53422;DHT22;39319;52.944;5.928;2023-05-08T08:54:11;18.80;95.10
53422;DHT22;39319;52.944;5.928;2023-05-08T08:56:38;18.70;95.00
53422;DHT22;39319;52.944;5.928;2023-05-08T08:59:05;18.90;96.10
53422;DHT22;39319;52.944;5.928;2023-05-08T09:01:34;19.00;96.30
53422;DHT22;39319;52.944;5.928;2023-05-08T09:04:03;19.10;96.00
53422;DHT22;39319;52.944;5.928;2023-05-08T09:06:32;19.30;96.70
53422;DHT22;39319;52.944;5.928;2023-05-08T09:09:01;19.40;98.00
53422;DHT22;39319;52.944;5.928;2023-05-08T09:11:27;19.70;98.20
53422;DHT22;39319;52.944;5.928;2023-05-08T09:13:56;19.90;99.00
53422;DHT22;39319;52.944;5.928;2023-05-08T09:16:23;20.00;99.40
53422;DHT22;39319;52.944;5.928;2023-05-08T09:18:49;20.20;99.40
53422;DHT22;39319;52.944;5.928;2023-05-08T09:21:15;20.20;99.90
53422;DHT22;39319;52.944;5.928;2023-05-08T09:24:03;20.20;99.60
53422;DHT22;39319;52.944;5.928;2023-05-08T09:26:37;20.50;99.30
53422;DHT22;39319;52.944;5.928;2023-05-08T09:29:13;20.60;99.40
53422;DHT22;39319;52.944;5.928;2023-05-08T09:31:43;20.60;98.50
53422;DHT22;39319;52.944;5.928;2023-05-08T09:34:21;20.80;99.30
53422;DHT22;39319;52.944;5.928;2023-05-08T09:36:51;21.00;99.30
53422;DHT22;39319;52.944;5.928;2023-05-08T09:39:22;21.20;99.10
53422;DHT22;39319;52.944;5.928;2023-05-08T09:41:59;21.00;99.70
53422;DHT22;39319;52.944;5.928;2023-05-08T09:44:25;21.20;99.90
53422;DHT22;39319;52.944;5.928;2023-05-08T12:17:01;23.80;87.80
53422;DHT22;39319;52.944;5.928;2023-05-08T12:19:26;23.90;88.50
53422;DHT22;39319;52.944;5.928;2023-05-08T12:21:55;23.90;90.10
53422;DHT22;39319;52.944;5.928;2023-05-08T12:24:21;24.00;87.90
53422;DHT22;39319;52.944;5.928;2023-05-08T12:26:48;24.10;88.40
53422;DHT22;39319;52.944;5.928;2023-05-08T12:29:17;24.10;88.00
53422;DHT22;39319;52.944;5.928;2023-05-08T12:31:43;24.00;87.20
53422;DHT22;39319;52.944;5.928;2023-05-08T12:34:09;24.10;87.50
53422;DHT22;39319;52.944;5.928;2023-05-08T12:36:36;24.10;88.70
53422;DHT22;39319;52.944;5.928;2023-05-08T12:39:12;24.20;88.50
53422;DHT22;39319;52.944;5.928;2023-05-08T12:41:49;24.20;88.20
53422;DHT22;39319;52.944;5.928;2023-05-08T12:44:20;24.20;89.90
53422;DHT22;39319;52.944;5.928;2023-05-08T12:46:52;24.30;88.30
53422;DHT22;39319;52.944;5.928;2023-05-08T12:49:29;24.20;88.00
53422;DHT22;39319;52.944;5.928;2023-05-08T12:54:44;24.20;89.90
53422;DHT22;39319;52.944;5.928;2023-05-08T12:59:39;24.10;87.70
53422;DHT22;39319;52.944;5.928;2023-05-08T13:02:16;24.00;88.20
53422;DHT22;39319;52.944;5.928;2023-05-08T13:04:43;24.10;90.10
53422;DHT22;39319;52.944;5.928;2023-05-08T13:07:09;24.30;89.50
53422;DHT22;39319;52.944;5.928;2023-05-08T13:09:34;24.50;89.80
53422;DHT22;39319;52.944;5.928;2023-05-08T13:12:01;24.60;87.70
53422;DHT22;39319;52.944;5.928;2023-05-08T13:14:26;24.70;88.40
53422;DHT22;39319;52.944;5.928;2023-05-08T13:16:52;24.70;89.60
53422;DHT22;39319;52.944;5.928;2023-05-08T13:19:18;24.60;89.10
53422;DHT22;39319;52.944;5.928;2023-05-08T13:21:44;24.50;89.00
53422;DHT22;39319;52.944;5.928;2023-05-08T13:24:14;24.40;89.50
53422;DHT22;39319;52.944;5.928;2023-05-08T13:26:40;24.50;89.40
53422;DHT22;39319;52.944;5.928;2023-05-08T13:29:05;24.40;89.60
53422;DHT22;39319;52.944;5.928;2023-05-08T13:31:31;24.40;89.70
53422;DHT22;39319;52.944;5.928;2023-05-08T13:33:57;24.40;89.90
53422;DHT22;39319;52.944;5.928;2023-05-08T13:36:22;24.20;90.00
53422;DHT22;39319;52.944;5.928;2023-05-08T13:38:49;24.20;90.50
53422;DHT22;39319;52.944;5.928;2023-05-08T13:41:18;24.00;90.60
53422;DHT22;39319;52.944;5.928;2023-05-08T13:43:44;24.00;90.50
53422;DHT22;39319;52.944;5.928;2023-05-08T13:46:09;23.90;90.40
53422;DHT22;39319;52.944;5.928;2023-05-08T13:48:35;23.80;90.50
53422;DHT22;39319;52.944;5.928;2023-05-08T13:51:01;23.60;90.20
53422;DHT22;39319;52.944;5.928;2023-05-08T13:53:27;23.50;90.30
53422;DHT22;39319;52.944;5.928;2023-05-08T13:55:52;23.40;90.50
53422;DHT22;39319;52.944;5.928;2023-05-08T13:58:18;23.30;90.80
53422;DHT22;39319;52.944;5.928;2023-05-08T14:00:44;21.60;90.70
53422;DHT22;39319;52.944;5.928;2023-05-08T14:03:09;23.30;91.00
53422;DHT22;39319;52.944;5.928;2023-05-08T14:05:35;23.30;90.80
53422;DHT22;39319;52.944;5.928;2023-05-08T14:08:01;23.40;90.30
53422;DHT22;39319;52.944;5.928;2023-05-08T14:10:27;23.30;90.60
53422;DHT22;39319;52.944;5.928;2023-05-08T14:12:53;23.30;90.30
53422;DHT22;39319;52.944;5.928;2023-05-08T14:15:18;23.20;90.20
53422;DHT22;39319;52.944;5.928;2023-05-08T14:17:44;23.20;90.30
53422;DHT22;39319;52.944;5.928;2023-05-08T14:20:10;23.20;90.40
53422;DHT22;39319;52.944;5.928;2023-05-08T14:22:38;23.20;90.40
53422;DHT22;39319;52.944;5.928;2023-05-08T14:25:04;23.20;90.40
53422;DHT22;39319;52.944;5.928;2023-05-08T14:27:30;23.10;90.90
53422;DHT22;39319;52.944;5.928;2023-05-08T14:29:56;23.00;90.50
53422;DHT22;39319;52.944;5.928;2023-05-08T14:32:22;22.90;90.70
53422;DHT22;39319;52.944;5.928;2023-05-08T14:34:48;22.90;90.70
53422;DHT22;39319;52.944;5.928;2023-05-08T14:37:13;22.80;91.10
53422;DHT22;39319;52.944;5.928;2023-05-08T14:39:39;22.80;91.00
53422;DHT22;39319;52.944;5.928;2023-05-08T14:42:05;22.80;91.20
53422;DHT22;39319;52.944;5.928;2023-05-08T14:44:31;22.80;91.00
53422;DHT22;39319;52.944;5.928;2023-05-08T14:46:57;22.80;91.10
53422;DHT22;39319;52.944;5.928;2023-05-08T14:49:22;22.80;91.00
53422;DHT22;39319;52.944;5.928;2023-05-08T14:51:50;22.70;90.90
53422;DHT22;39319;52.944;5.928;2023-05-08T14:54:16;22.70;90.70
53422;DHT22;39319;52.944;5.928;2023-05-08T14:56:45;22.80;90.50
53422;DHT22;39319;52.944;5.928;2023-05-08T14:59:10;22.70;90.30
53422;DHT22;39319;52.944;5.928;2023-05-08T15:01:36;22.80;90.20
53422;DHT22;39319;52.944;5.928;2023-05-08T15:04:09;22.80;89.70
53422;DHT22;39319;52.944;5.928;2023-05-08T15:06:34;22.90;90.40
53422;DHT22;39319;52.944;5.928;2023-05-08T15:09:01;23.00;90.00
53422;DHT22;39319;52.944;5.928;2023-05-08T15:11:26;23.10;89.20
53422;DHT22;39319;52.944;5.928;2023-05-08T15:13:52;23.20;89.20
53422;DHT22;39319;52.944;5.928;2023-05-08T15:16:18;23.20;90.10
53422;DHT22;39319;52.944;5.928;2023-05-08T15:18:44;23.40;89.00
53422;DHT22;39319;52.944;5.928;2023-05-08T15:21:09;23.40;87.60
53422;DHT22;39319;52.944;5.928;2023-05-08T15:23:35;23.30;87.20
53422;DHT22;39319;52.944;5.928;2023-05-08T15:26:01;23.30;88.30
53422;DHT22;39319;52.944;5.928;2023-05-08T15:28:27;23.20;88.40
53422;DHT22;39319;52.944;5.928;2023-05-08T15:30:53;23.20;88.20
53422;DHT22;39319;52.944;5.928;2023-05-08T15:33:19;23.20;87.00
53422;DHT22;39319;52.944;5.928;2023-05-08T15:35:44;23.20;88.30
53422;DHT22;39319;52.944;5.928;2023-05-08T15:38:10;23.20;87.20
53422;DHT22;39319;52.944;5.928;2023-05-08T15:40:37;23.20;87.20
53422;DHT22;39319;52.944;5.928;2023-05-08T15:43:03;23.20;87.20
53422;DHT22;39319;52.944;5.928;2023-05-08T15:45:29;23.20;87.30
53422;DHT22;39319;52.944;5.928;2023-05-08T15:47:54;23.30;88.70
53422;DHT22;39319;52.944;5.928;2023-05-08T15:50:20;23.40;88.00
53422;DHT22;39319;52.944;5.928;2023-05-08T15:52:46;23.40;86.90
53422;DHT22;39319;52.944;5.928;2023-05-08T15:55:12;23.40;87.00
53422;DHT22;39319;52.944;5.928;2023-05-08T15:57:38;23.40;86.60
53422;DHT22;39319;52.944;5.928;2023-05-08T16:00:04;23.50;86.70
53422;DHT22;39319;52.944;5.928;2023-05-08T16:02:30;23.40;85.70
53422;DHT22;39319;52.944;5.928;2023-05-08T16:04:56;23.40;85.20
53422;DHT22;39319;52.944;5.928;2023-05-08T16:07:21;23.40;84.80
53422;DHT22;39319;52.944;5.928;2023-05-08T16:09:47;23.30;85.40
53422;DHT22;39319;52.944;5.928;2023-05-08T16:12:13;23.20;84.80
53422;DHT22;39319;52.944;5.928;2023-05-08T16:14:38;23.20;85.70
53422;DHT22;39319;52.944;5.928;2023-05-08T16:17:04;23.20;86.00
53422;DHT22;39319;52.944;5.928;2023-05-08T16:19:30;23.20;86.10
53422;DHT22;39319;52.944;5.928;2023-05-08T16:21:55;23.10;86.40
53422;DHT22;39319;52.944;5.928;2023-05-08T16:24:21;23.10;86.00
53422;DHT22;39319;52.944;5.928;2023-05-08T16:26:49;23.10;86.10
53422;DHT22;39319;52.944;5.928;2023-05-08T16:29:16;23.10;86.10
53422;DHT22;39319;52.944;5.928;2023-05-08T16:31:41;23.00;86.50
53422;DHT22;39319;52.944;5.928;2023-05-08T16:34:07;23.00;86.00
53422;DHT22;39319;52.944;5.928;2023-05-08T16:36:35;22.90;87.10
53422;DHT22;39319;52.944;5.928;2023-05-08T16:39:01;23.00;87.30
53422;DHT22;39319;52.944;5.928;2023-05-08T16:41:26;23.00;87.50
53422;DHT22;39319;52.944;5.928;2023-05-08T16:43:52;23.00;87.50
53422;DHT22;39319;52.944;5.928;2023-05-08T16:46:18;22.90;87.60
53422;DHT22;39319;52.944;5.928;2023-05-08T16:48:43;22.80;88.00
53422;DHT22;39319;52.944;5.928;2023-05-08T16:51:09;22.80;88.40
53422;DHT22;39319;52.944;5.928;2023-05-08T16:53:35;22.70;88.30
53422;DHT22;39319;52.944;5.928;2023-05-08T16:56:01;22.70;88.60
53422;DHT22;39319;52.944;5.928;2023-05-08T16:58:27;22.70;89.40
53422;DHT22;39319;52.944;5.928;2023-05-08T17:00:53;22.60;90.00
53422;DHT22;39319;52.944;5.928;2023-05-08T17:03:18;22.60;90.20
53422;DHT22;39319;52.944;5.928;2023-05-08T17:05:44;22.60;89.50
53422;DHT22;39319;52.944;5.928;2023-05-08T17:08:10;22.50;89.40
53422;DHT22;39319;52.944;5.928;2023-05-08T17:10:38;22.40;89.80
53422;DHT22;39319;52.944;5.928;2023-05-08T17:13:04;22.40;90.00
53422;DHT22;39319;52.944;5.928;2023-05-08T17:15:30;22.30;89.90
53422;DHT22;39319;52.944;5.928;2023-05-08T17:17:55;22.20;90.40
53422;DHT22;39319;52.944;5.928;2023-05-08T17:20:22;22.20;90.60
53422;DHT22;39319;52.944;5.928;2023-05-08T17:22:47;22.20;90.60
53422;DHT22;39319;52.944;5.928;2023-05-08T17:25:13;22.20;90.60
53422;DHT22;39319;52.944;5.928;2023-05-08T17:27:39;22.10;90.60
53422;DHT22;39319;52.944;5.928;2023-05-08T17:30:05;22.10;90.80
53422;DHT22;39319;52.944;5.928;2023-05-08T17:32:32;22.00;90.60
53422;DHT22;39319;52.944;5.928;2023-05-08T17:34:58;22.00;91.00
53422;DHT22;39319;52.944;5.928;2023-05-08T17:37:24;21.90;91.40
53422;DHT22;39319;52.944;5.928;2023-05-08T17:39:50;21.90;91.80
53422;DHT22;39319;52.944;5.928;2023-05-08T17:42:15;21.90;92.10
53422;DHT22;39319;52.944;5.928;2023-05-08T17:44:41;21.90;92.60
53422;DHT22;39319;52.944;5.928;2023-05-08T17:47:07;21.80;93.00
53422;DHT22;39319;52.944;5.928;2023-05-08T17:49:33;21.60;93.00
53422;DHT22;39319;52.944;5.928;2023-05-08T17:51:59;21.50;93.30
53422;DHT22;39319;52.944;5.928;2023-05-08T17:54:25;21.50;93.10
53422;DHT22;39319;52.944;5.928;2023-05-08T17:56:50;21.40;93.30
53422;DHT22;39319;52.944;5.928;2023-05-08T17:59:16;21.20;93.40
53422;DHT22;39319;52.944;5.928;2023-05-08T18:01:42;21.10;93.20
53422;DHT22;39319;52.944;5.928;2023-05-08T18:04:07;21.00;93.30
53422;DHT22;39319;52.944;5.928;2023-05-08T18:06:36;20.90;93.50
53422;DHT22;39319;52.944;5.928;2023-05-08T18:09:01;20.80;93.60
53422;DHT22;39319;52.944;5.928;2023-05-08T18:11:27;20.70;93.60
53422;DHT22;39319;52.944;5.928;2023-05-08T18:13:53;20.60;93.90
53422;DHT22;39319;52.944;5.928;2023-05-08T18:16:19;20.50;94.10
53422;DHT22;39319;52.944;5.928;2023-05-08T18:18:45;20.50;94.10
53422;DHT22;39319;52.944;5.928;2023-05-08T18:21:12;20.40;94.10
53422;DHT22;39319;52.944;5.928;2023-05-08T18:23:38;20.30;94.00
53422;DHT22;39319;52.944;5.928;2023-05-08T18:26:04;20.30;94.20
53422;DHT22;39319;52.944;5.928;2023-05-08T18:28:29;20.20;94.40
53422;DHT22;39319;52.944;5.928;2023-05-08T18:30:55;20.10;94.30
53422;DHT22;39319;52.944;5.928;2023-05-08T18:33:21;20.10;94.50